createdAt,value
2022-09-12T06:03:07.749Z,12.52
2022-09-12T06:04:07.759Z,12.53
2022-09-12T06:05:07.718Z,12.59
2022-09-12T06:06:07.708Z,12.62
2022-09-12T06:07:07.691Z,12.50
2022-09-12T06:08:07.675Z,12.57
2022-09-12T06:09:07.691Z,12.65
2022-09-12T06:10:07.647Z,12.70
2022-09-12T06:11:07.631Z,12.74
2022-09-12T06:12:07.651Z,12.79
2022-09-12T06:13:07.602Z,12.78
2022-09-12T06:14:07.593Z,12.85
2022-09-12T06:15:07.577Z,12.86
2022-09-12T06:16:07.565Z,12.87
2022-09-12T06:17:07.575Z,12.96
2022-09-12T06:18:07.539Z,12.96
2022-09-12T06:19:07.529Z,12.97
2022-09-12T06:20:07.508Z,12.92
2022-09-12T06:21:07.500Z,12.97
2022-09-12T06:22:07.505Z,12.95
2022-09-12T06:23:07.468Z,13.03
2022-09-12T06:24:07.455Z,12.95
2022-09-12T06:25:07.449Z,12.95
2022-09-12T06:26:07.424Z,13.07
2022-09-12T06:27:07.455Z,13.08
2022-09-12T06:28:07.403Z,13.07
2022-09-12T06:29:07.385Z,13.17
2022-09-12T06:30:07.371Z,13.19
2022-09-12T06:31:07.445Z,13.30
2022-09-12T06:32:07.343Z,13.25
2022-09-12T06:33:07.390Z,13.39
2022-09-12T06:34:07.328Z,13.38
2022-09-12T06:35:07.309Z,13.39
2022-09-12T06:36:12.076Z,13.36
2022-09-12T06:37:07.290Z,13.48
2022-09-12T06:38:07.262Z,13.46
2022-09-12T06:39:07.257Z,13.42
2022-09-12T06:40:07.270Z,13.41
2022-09-12T06:41:07.223Z,13.41
2022-09-12T06:42:07.208Z,13.32
2022-09-12T06:43:07.189Z,13.41
2022-09-12T06:44:07.211Z,13.36
2022-09-12T06:45:07.165Z,13.39
2022-09-12T06:46:07.191Z,13.45
2022-09-12T06:47:07.155Z,13.46
2022-09-12T06:48:07.126Z,13.36
2022-09-12T06:49:07.137Z,13.38
2022-09-12T06:50:07.380Z,13.39
2022-09-12T06:51:07.086Z,13.32
2022-09-12T06:52:07.073Z,13.36
2022-09-12T06:53:07.060Z,13.36
2022-09-12T06:54:07.045Z,13.51
2022-09-12T06:55:07.039Z,13.44
2022-09-12T06:56:07.146Z,13.54
2022-09-12T06:57:06.999Z,13.59
2022-09-12T06:58:06.995Z,13.57
2022-09-12T06:59:06.976Z,13.52
2022-09-12T07:00:06.964Z,13.52
2022-09-12T07:01:06.980Z,13.36
2022-09-12T07:02:06.990Z,13.29
2022-09-12T07:03:06.920Z,13.30
2022-09-12T07:04:06.922Z,13.32
2022-09-12T07:05:06.892Z,13.41
2022-09-12T07:06:06.908Z,13.30
2022-09-12T07:07:06.924Z,13.33
2022-09-12T07:08:06.855Z,13.36
2022-09-12T07:09:06.837Z,13.49
2022-09-12T07:10:06.989Z,13.45
2022-09-12T07:11:06.811Z,13.48
2022-09-12T07:12:06.934Z,13.55
2022-09-12T07:13:06.785Z,13.51
2022-09-12T07:14:06.778Z,13.52
2022-09-12T07:15:06.764Z,13.57
2022-09-12T07:16:06.745Z,13.51
2022-09-12T07:17:06.958Z,13.66
2022-09-12T07:18:06.721Z,13.75
2022-09-12T07:19:06.704Z,13.77
2022-09-12T07:20:06.699Z,13.84
2022-09-12T07:21:06.676Z,13.88
2022-09-12T07:22:06.665Z,13.97
2022-09-12T07:23:06.709Z,14.10
2022-09-12T07:24:06.660Z,13.97
2022-09-12T07:25:06.628Z,14.00
2022-09-12T07:26:06.616Z,14.00
2022-09-12T07:27:06.622Z,14.06
2022-09-12T07:28:06.616Z,14.09
2022-09-12T07:29:35.438Z,14.15
2022-09-12T07:30:06.586Z,14.17
2022-09-12T07:31:06.604Z,14.18
2022-09-12T07:32:06.532Z,14.25
2022-09-12T07:33:06.517Z,14.32
2022-09-12T07:34:06.646Z,14.39
2022-09-12T07:35:06.499Z,14.42
2022-09-12T07:36:06.483Z,14.47
2022-09-12T07:37:06.491Z,14.50
2022-09-12T07:38:06.453Z,14.47
2022-09-12T07:39:06.449Z,14.50
2022-09-12T07:40:06.513Z,14.39
2022-09-12T07:41:06.412Z,14.28
2022-09-12T07:42:06.402Z,14.29
2022-09-12T07:43:06.384Z,14.22
2022-09-12T07:44:06.375Z,14.21
2022-09-12T07:45:06.391Z,14.35
2022-09-12T07:46:06.380Z,14.33
2022-09-12T07:47:06.359Z,14.37
2022-09-12T07:48:06.322Z,14.39
2022-09-12T07:49:07.530Z,14.36
2022-09-12T07:50:06.302Z,14.50
2022-09-12T07:51:06.285Z,14.50
2022-09-12T07:52:06.284Z,14.54
2022-09-12T07:53:06.254Z,14.51
2022-09-12T07:54:06.239Z,14.52
2022-09-12T07:55:06.239Z,14.55
2022-09-12T07:56:06.221Z,14.62
2022-09-12T07:57:06.202Z,14.47
2022-09-12T07:58:06.217Z,14.62
2022-09-12T07:59:06.240Z,14.61
2022-09-12T08:00:06.166Z,14.61
2022-09-12T08:01:06.202Z,14.68
2022-09-12T08:02:06.226Z,14.69
2022-09-12T08:03:06.146Z,14.80
2022-09-12T08:04:06.117Z,14.84
2022-09-12T08:05:06.127Z,14.75
2022-09-12T08:06:06.097Z,14.92
2022-09-12T08:07:06.076Z,14.88
2022-09-12T08:08:06.075Z,14.96
2022-09-12T08:09:06.057Z,15.03
2022-09-12T08:10:06.035Z,15.13
2022-09-12T08:11:06.074Z,15.14
2022-09-12T08:12:06.013Z,15.29
2022-09-12T08:13:06.004Z,15.36
2022-09-12T08:14:05.993Z,15.29
2022-09-12T08:15:05.978Z,15.43
2022-09-12T08:16:06.057Z,15.47
2022-09-12T08:17:05.975Z,15.46
2022-09-12T08:18:05.955Z,15.36
2022-09-12T08:19:05.924Z,15.47
2022-09-12T08:20:05.908Z,15.43
2022-09-12T08:21:05.923Z,15.51
2022-09-12T08:22:05.918Z,15.51
2022-09-12T08:23:05.877Z,15.56
2022-09-12T08:24:05.884Z,15.49
2022-09-12T08:25:05.848Z,15.59
2022-09-12T08:26:06.462Z,15.65
2022-09-12T08:27:05.951Z,15.60
2022-09-12T08:28:05.811Z,15.59
2022-09-12T08:29:05.801Z,15.72
2022-09-12T08:30:05.786Z,15.71
2022-09-12T08:31:05.869Z,15.69
2022-09-12T08:32:05.953Z,15.71
2022-09-12T08:33:05.749Z,15.76
2022-09-12T08:34:05.767Z,15.83
2022-09-12T08:35:05.728Z,15.84
2022-09-12T08:36:05.710Z,15.84
2022-09-12T08:37:05.713Z,15.92
2022-09-12T08:38:05.724Z,15.92
2022-09-12T08:39:05.687Z,15.90
2022-09-12T08:40:05.717Z,15.96
2022-09-12T08:41:05.653Z,15.94
2022-09-12T08:42:05.692Z,16.07
2022-09-12T08:43:05.659Z,16.02
2022-09-12T08:44:05.609Z,16.07
2022-09-12T08:45:05.599Z,16.08
2022-09-12T08:46:05.630Z,16.02
2022-09-12T08:47:05.617Z,15.92
2022-09-12T08:48:05.569Z,16.07
2022-09-12T08:49:05.551Z,16.05
2022-09-12T08:50:05.541Z,15.96
2022-09-12T08:51:05.543Z,16.02
2022-09-12T08:52:05.556Z,16.11
2022-09-12T08:53:05.518Z,16.17
2022-09-12T08:54:05.490Z,16.21
2022-09-12T08:55:05.481Z,16.25
2022-09-12T08:56:05.483Z,16.35
2022-09-12T08:57:05.590Z,16.33
2022-09-12T08:58:05.440Z,16.33
2022-09-12T08:59:05.444Z,16.41
2022-09-12T09:00:05.429Z,16.39
2022-09-12T09:01:05.454Z,16.48
2022-09-12T09:02:05.517Z,16.56
2022-09-12T09:03:05.398Z,16.56
2022-09-12T09:04:05.369Z,16.56
2022-09-12T09:05:05.358Z,16.57
2022-09-12T09:06:05.344Z,16.60
2022-09-12T09:07:05.337Z,16.56
2022-09-12T09:08:05.322Z,16.60
2022-09-12T09:09:05.308Z,16.71
2022-09-12T09:10:05.313Z,16.76
2022-09-12T09:11:05.329Z,16.79
2022-09-12T09:12:05.319Z,16.85
2022-09-12T09:13:05.319Z,16.81
2022-09-12T09:14:05.625Z,16.86
2022-09-12T09:15:05.250Z,16.93
2022-09-12T09:16:05.324Z,16.91
2022-09-12T09:17:05.222Z,17.06
2022-09-12T09:18:05.202Z,17.03
2022-09-12T09:19:05.223Z,17.03
2022-09-12T09:20:05.183Z,16.98
2022-09-12T09:21:05.174Z,17.07
2022-09-12T09:22:05.155Z,17.07
2022-09-12T09:23:05.192Z,17.12
2022-09-12T09:24:05.198Z,17.18
2022-09-12T09:25:05.132Z,17.16
2022-09-12T09:26:05.129Z,17.18
2022-09-12T09:27:14.320Z,17.12
2022-09-12T09:28:05.086Z,17.15
2022-09-12T09:29:05.094Z,17.22
2022-09-12T09:30:05.093Z,17.18
2022-09-12T09:31:05.130Z,17.25
2022-09-12T09:32:05.045Z,17.22
2022-09-12T09:33:05.033Z,17.37
2022-09-12T09:34:05.045Z,17.26
2022-09-12T09:35:05.010Z,17.33
2022-09-12T09:36:05.015Z,17.36
2022-09-12T09:37:04.987Z,17.38
2022-09-12T09:38:04.970Z,17.46
2022-09-12T09:39:05.009Z,17.52
2022-09-12T09:40:05.025Z,17.52
2022-09-12T09:41:05.040Z,17.59
2022-09-12T09:42:04.927Z,17.58
2022-09-12T09:43:04.934Z,17.63
2022-09-12T09:44:05.029Z,17.63
2022-09-12T09:45:04.938Z,17.62
2022-09-12T09:46:04.956Z,17.71
2022-09-12T09:47:04.875Z,17.63
2022-09-12T09:48:04.856Z,17.71
2022-09-12T09:49:04.860Z,17.70
2022-09-12T09:50:04.854Z,17.64
2022-09-12T09:51:04.829Z,17.74
2022-09-12T09:52:04.814Z,17.74
2022-09-12T09:53:04.805Z,17.71
2022-09-12T09:54:04.793Z,17.72
2022-09-12T09:55:04.781Z,17.78
2022-09-12T09:56:04.797Z,17.72
2022-09-12T09:57:04.946Z,17.79
2022-09-12T09:58:04.799Z,17.74
2022-09-12T09:59:04.784Z,17.74
2022-09-12T10:00:04.722Z,17.78
2022-09-12T10:01:04.788Z,17.78
2022-09-12T10:02:04.798Z,17.81
2022-09-12T10:03:04.865Z,17.86
2022-09-12T10:04:04.679Z,17.79
2022-09-12T10:05:04.668Z,17.84
2022-09-12T10:06:04.651Z,17.97
2022-09-12T10:07:04.657Z,17.97
2022-09-12T10:08:04.653Z,18.07
2022-09-12T10:09:04.663Z,17.97
2022-09-12T10:10:04.612Z,18.02
2022-09-12T10:11:04.602Z,18.07
2022-09-12T10:12:04.609Z,18.07
2022-09-12T10:13:04.605Z,18.15
2022-09-12T10:14:04.572Z,18.17
2022-09-12T10:15:04.577Z,18.14
2022-09-12T10:16:04.594Z,18.25
2022-09-12T10:17:04.534Z,18.26
2022-09-12T10:18:04.522Z,18.27
2022-09-12T10:19:04.557Z,18.26
2022-09-12T10:20:20.929Z,18.26
2022-09-12T10:21:04.491Z,18.23
2022-09-12T10:22:04.490Z,18.26
2022-09-12T10:23:04.479Z,18.30
2022-09-12T10:24:04.504Z,18.26
2022-09-12T10:25:04.473Z,18.35
2022-09-12T10:26:04.438Z,18.41
2022-09-12T10:27:04.426Z,18.47
2022-09-12T10:28:04.413Z,18.45
2022-09-12T10:29:04.419Z,18.37
2022-09-12T10:30:04.417Z,18.42
2022-09-12T10:31:04.442Z,18.52
2022-09-12T10:32:04.371Z,18.51
2022-09-12T10:33:04.359Z,18.65
2022-09-12T10:34:04.355Z,18.66
2022-09-12T10:35:04.541Z,18.65
2022-09-12T10:36:04.338Z,18.72
2022-09-12T10:37:04.318Z,18.82
2022-09-12T10:38:04.318Z,18.84
2022-09-12T10:39:04.311Z,18.72
2022-09-12T10:40:04.329Z,18.70
2022-09-12T10:41:04.279Z,18.76
2022-09-12T10:42:04.278Z,18.73
2022-09-12T10:43:04.255Z,18.73
2022-09-12T10:44:04.244Z,18.70
2022-09-12T10:45:04.266Z,18.72
2022-09-12T10:46:04.264Z,18.76
2022-09-12T10:47:04.223Z,18.80
2022-09-12T10:48:07.506Z,18.78
2022-09-12T10:49:04.188Z,18.80
2022-09-12T10:50:04.191Z,18.94
2022-09-12T10:51:04.177Z,18.94
2022-09-12T10:52:04.160Z,19.02
2022-09-12T10:53:04.217Z,19.02
2022-09-12T10:54:04.133Z,18.99
2022-09-12T10:55:04.126Z,19.08
2022-09-12T10:56:04.128Z,19.21
2022-09-12T10:57:04.109Z,19.28
2022-09-12T10:58:04.132Z,19.26
2022-09-12T10:59:04.086Z,19.25
2022-09-12T11:00:04.076Z,19.26
2022-09-12T11:01:04.098Z,19.39
2022-09-12T11:02:04.141Z,19.39
2022-09-12T11:03:04.075Z,19.41
2022-09-12T11:04:04.032Z,19.37
2022-09-12T11:05:04.029Z,19.41
2022-09-12T11:06:04.013Z,19.43
2022-09-12T11:07:04.013Z,19.46
2022-09-12T11:08:04.008Z,19.46
2022-09-12T11:09:03.996Z,19.44
2022-09-12T11:10:04.027Z,19.50
2022-09-12T11:11:03.965Z,19.61
2022-09-12T11:12:03.951Z,19.58
2022-09-12T11:13:03.948Z,19.63
2022-09-12T11:14:03.930Z,19.68
2022-09-12T11:15:03.923Z,19.65
2022-09-12T11:16:03.962Z,19.73
2022-09-12T11:17:03.903Z,19.73
2022-09-12T11:18:03.896Z,19.78
2022-09-12T11:19:03.896Z,19.80
2022-09-12T11:20:03.895Z,19.83
2022-09-12T11:21:03.882Z,19.94
2022-09-12T11:22:03.855Z,19.91
2022-09-12T11:23:03.887Z,19.81
2022-09-12T11:24:03.832Z,19.83
2022-09-12T11:25:03.826Z,19.83
2022-09-12T11:26:03.823Z,19.83
2022-09-12T11:27:03.800Z,19.87
2022-09-12T11:28:03.918Z,19.88
2022-09-12T11:29:03.778Z,19.84
2022-09-12T11:30:03.766Z,19.86
2022-09-12T11:31:03.877Z,19.88
2022-09-12T11:32:03.749Z,19.84
2022-09-12T11:33:03.739Z,19.92
2022-09-12T11:34:03.888Z,20.02
2022-09-12T11:35:03.722Z,20.10
2022-09-12T11:36:03.720Z,20.10
2022-09-12T11:37:07.431Z,20.05
2022-09-12T11:38:03.696Z,20.05
2022-09-12T11:39:03.696Z,19.94
2022-09-12T11:40:03.759Z,19.91
2022-09-12T11:41:03.663Z,20.06
2022-09-12T11:42:03.651Z,20.03
2022-09-12T11:43:03.648Z,19.96
2022-09-12T11:44:03.631Z,19.95
2022-09-12T11:45:03.674Z,19.87
2022-09-12T11:46:03.660Z,19.98
2022-09-12T11:47:03.612Z,20.10
2022-09-12T11:48:03.589Z,20.24
2022-09-12T11:49:03.584Z,20.31
2022-09-12T11:50:03.570Z,20.41
2022-09-12T11:51:03.728Z,20.32
2022-09-12T11:52:03.554Z,20.36
2022-09-12T11:53:03.540Z,20.36
2022-09-12T11:54:03.531Z,20.31
2022-09-12T11:55:03.524Z,20.38
2022-09-12T11:56:03.510Z,20.31
2022-09-12T11:57:03.525Z,20.36
2022-09-12T11:58:03.489Z,20.32
2022-09-12T11:59:03.491Z,20.21
2022-09-12T12:00:03.470Z,20.23
2022-09-12T12:01:03.587Z,20.29
2022-09-12T12:02:03.492Z,20.26
2022-09-12T12:03:03.444Z,20.32
2022-09-12T12:04:03.486Z,20.32
2022-09-12T12:05:03.437Z,20.29
2022-09-12T12:06:03.416Z,20.39
2022-09-12T12:07:03.414Z,20.38
2022-09-12T12:08:03.406Z,20.39
2022-09-12T12:09:03.383Z,20.36
2022-09-12T12:10:03.386Z,20.35
2022-09-12T12:11:03.363Z,20.31
2022-09-12T12:12:03.362Z,20.28
2022-09-12T12:13:03.367Z,20.31
2022-09-12T12:14:03.334Z,20.32
2022-09-12T12:15:03.327Z,20.38
2022-09-12T12:16:03.465Z,20.33
2022-09-12T12:17:03.469Z,20.33
2022-09-12T12:18:03.299Z,20.33
2022-09-12T12:19:06.382Z,20.42
2022-09-12T12:20:07.393Z,20.43
2022-09-12T12:21:03.266Z,20.48
2022-09-12T12:22:03.255Z,20.58
2022-09-12T12:23:03.249Z,20.61
2022-09-12T12:24:03.238Z,20.52
2022-09-12T12:25:03.245Z,20.76
2022-09-12T12:26:03.246Z,20.66
2022-09-12T12:27:03.209Z,20.72
2022-09-12T12:28:03.230Z,20.70
2022-09-12T12:29:03.190Z,20.72
2022-09-12T12:30:03.190Z,20.73
2022-09-12T12:31:03.291Z,20.72
2022-09-12T12:32:03.164Z,20.80
2022-09-12T12:33:03.294Z,20.76
2022-09-12T12:34:03.140Z,20.76
2022-09-12T12:35:03.127Z,20.79
2022-09-12T12:36:03.121Z,20.77
2022-09-12T12:37:07.210Z,20.84
2022-09-12T12:38:03.103Z,20.88
2022-09-12T12:39:03.091Z,20.88
2022-09-12T12:40:03.208Z,20.91
2022-09-12T12:41:03.073Z,20.91
2022-09-12T12:42:03.090Z,20.97
2022-09-12T12:43:03.074Z,21.03
2022-09-12T12:44:03.049Z,21.03
2022-09-12T12:45:03.071Z,20.94
2022-09-12T12:46:03.130Z,21.01
2022-09-12T12:47:03.014Z,21.01
2022-09-12T12:48:07.604Z,21.09
2022-09-12T12:49:03.002Z,21.04
2022-09-12T12:50:03.013Z,21.10
2022-09-12T12:51:02.975Z,21.10
2022-09-12T12:52:02.971Z,21.17
2022-09-12T12:53:02.958Z,21.34
2022-09-12T12:54:02.954Z,21.38
2022-09-12T12:55:02.945Z,21.40
2022-09-12T12:56:02.931Z,21.58
2022-09-12T12:57:02.925Z,21.71
2022-09-12T12:58:02.913Z,21.67
2022-09-12T12:59:02.904Z,21.72
2022-09-12T13:00:02.895Z,21.72
2022-09-12T13:01:02.893Z,21.75
2022-09-12T13:02:02.927Z,21.71
2022-09-12T13:03:02.914Z,21.67
2022-09-12T13:04:02.858Z,21.68
2022-09-12T13:05:02.852Z,21.67
2022-09-12T13:06:02.840Z,21.71
2022-09-12T13:07:07.754Z,21.71
2022-09-12T13:08:02.849Z,21.67
2022-09-12T13:09:02.813Z,21.62
2022-09-12T13:10:02.816Z,21.64
2022-09-12T13:11:02.807Z,21.49
2022-09-12T13:12:02.785Z,21.49
2022-09-12T13:13:02.843Z,21.49
2022-09-12T13:14:02.767Z,21.53
2022-09-12T13:15:02.782Z,21.56
2022-09-12T13:16:02.801Z,21.61
2022-09-12T13:17:02.738Z,21.67
2022-09-12T13:18:02.754Z,21.67
2022-09-12T13:19:02.720Z,21.64
2022-09-12T13:20:26.050Z,21.67
2022-09-12T13:21:02.705Z,21.69
2022-09-12T13:22:02.701Z,21.68
2022-09-12T13:23:02.743Z,21.79
2022-09-12T13:24:02.682Z,21.79
2022-09-12T13:25:02.678Z,21.77
2022-09-12T13:26:02.656Z,21.86
2022-09-12T13:27:02.663Z,21.86
2022-09-12T13:28:02.663Z,21.83
2022-09-12T13:29:02.653Z,21.94
2022-09-12T13:30:02.624Z,21.82
2022-09-12T13:31:02.651Z,21.88
2022-09-12T13:32:02.604Z,21.90
2022-09-12T13:33:02.599Z,21.82
2022-09-12T13:34:02.616Z,21.91
2022-09-12T13:35:02.578Z,21.83
2022-09-12T13:36:02.567Z,21.84
2022-09-12T13:37:02.559Z,21.90
2022-09-12T13:38:02.565Z,21.83
2022-09-12T13:39:02.569Z,21.83
2022-09-12T13:40:02.554Z,21.83
2022-09-12T13:41:02.520Z,21.88
2022-09-12T13:42:02.523Z,22.02
2022-09-12T13:43:02.505Z,21.99
2022-09-12T13:44:02.501Z,22.06
2022-09-12T13:45:02.631Z,22.07
2022-09-12T13:46:02.521Z,22.12
2022-09-12T13:47:02.475Z,22.17
2022-09-12T13:48:02.465Z,22.17
2022-09-12T13:49:02.452Z,22.12
2022-09-12T13:50:02.446Z,22.14
2022-09-12T13:51:02.447Z,22.15
2022-09-12T13:52:02.436Z,22.09
2022-09-12T13:53:02.420Z,22.30
2022-09-12T13:54:02.421Z,22.35
2022-09-12T13:55:02.434Z,22.39
2022-09-12T13:56:02.403Z,22.42
2022-09-12T13:57:02.387Z,22.49
2022-09-12T13:58:02.381Z,22.45
2022-09-12T13:59:02.386Z,22.47
2022-09-12T14:00:02.358Z,22.47
2022-09-12T14:01:02.373Z,22.36
2022-09-12T14:02:02.408Z,22.36
2022-09-12T14:03:02.346Z,22.36
2022-09-12T14:04:02.328Z,22.30
2022-09-12T14:05:02.323Z,22.24
2022-09-12T14:06:02.355Z,22.31
2022-09-12T14:07:02.304Z,22.33
2022-09-12T14:08:02.330Z,22.35
2022-09-12T14:09:02.283Z,22.30
2022-09-12T14:10:02.285Z,22.36
2022-09-12T14:11:02.265Z,22.28
2022-09-12T14:12:02.268Z,22.42
2022-09-12T14:13:02.287Z,22.36
2022-09-12T14:14:02.282Z,22.45
2022-09-12T14:15:02.298Z,22.54
2022-09-12T14:16:02.281Z,22.64
2022-09-12T14:17:02.221Z,22.75
2022-09-12T14:18:02.215Z,22.75
2022-09-12T14:19:02.211Z,22.88
2022-09-12T14:20:02.214Z,22.91
2022-09-12T14:21:02.189Z,23.00
2022-09-12T14:22:02.181Z,23.00
2022-09-12T14:23:02.172Z,22.90
2022-09-12T14:24:02.407Z,22.98
2022-09-12T14:25:02.164Z,23.09
2022-09-12T14:26:02.208Z,23.04
2022-09-12T14:27:02.160Z,23.17
2022-09-12T14:28:02.141Z,23.19
2022-09-12T14:29:02.176Z,23.23
2022-09-12T14:30:02.123Z,23.31
2022-09-12T14:31:02.183Z,23.20
2022-09-12T14:32:02.118Z,23.15
2022-09-12T14:33:02.142Z,23.09
2022-09-12T14:34:02.126Z,23.07
2022-09-12T14:35:02.086Z,23.13
2022-09-12T14:36:02.081Z,23.27
2022-09-12T14:37:02.074Z,23.32
2022-09-12T14:38:02.069Z,23.27
2022-09-12T14:39:02.086Z,23.09
2022-09-12T14:40:02.179Z,23.04
2022-09-12T14:41:02.081Z,22.80
2022-09-12T14:42:02.036Z,22.70
2022-09-12T14:43:02.058Z,22.52
2022-09-12T14:44:02.155Z,22.58
2022-09-12T14:45:02.011Z,22.58
2022-09-12T14:46:02.082Z,22.61
2022-09-12T14:47:02.042Z,22.73
2022-09-12T14:48:01.994Z,22.88
2022-09-12T14:49:01.999Z,23.02
2022-09-12T14:50:02.007Z,23.10
2022-09-12T14:51:01.996Z,23.19
2022-09-12T14:52:02.093Z,23.17
2022-09-12T14:53:01.981Z,23.23
2022-09-12T14:54:01.951Z,23.10
2022-09-12T14:55:01.940Z,23.17
2022-09-12T14:56:02.073Z,23.12
2022-09-12T14:57:01.927Z,23.01
2022-09-12T14:58:01.918Z,23.19
2022-09-12T14:59:02.009Z,23.46
2022-09-12T15:00:01.947Z,23.55
2022-09-12T15:01:01.948Z,23.47
2022-09-12T15:02:01.923Z,23.50
2022-09-12T15:03:01.907Z,23.36
2022-09-12T15:04:01.912Z,23.40
2022-09-12T15:05:01.879Z,23.47
2022-09-12T15:06:01.870Z,23.61
2022-09-12T15:07:01.885Z,23.40
2022-09-12T15:08:01.895Z,23.35
2022-09-12T15:09:02.034Z,23.36
2022-09-12T15:10:01.915Z,23.43
2022-09-12T15:11:01.837Z,23.55
2022-09-12T15:12:01.853Z,23.48
2022-09-12T15:13:01.828Z,23.42
2022-09-12T15:14:01.838Z,23.40
2022-09-12T15:15:01.798Z,23.38
2022-09-12T15:16:01.828Z,23.27
2022-09-12T15:17:01.782Z,23.23
2022-09-12T15:18:06.246Z,23.17
2022-09-12T15:19:01.771Z,23.09
2022-09-12T15:20:01.868Z,23.02
2022-09-12T15:21:01.760Z,23.13
2022-09-12T15:22:01.779Z,23.20
2022-09-12T15:23:01.767Z,23.13
2022-09-12T15:24:01.750Z,23.04
2022-09-12T15:25:01.728Z,23.10
2022-09-12T15:26:01.756Z,23.02
2022-09-12T15:27:01.714Z,23.07
2022-09-12T15:28:01.710Z,23.12
2022-09-12T15:29:01.699Z,23.15
2022-09-12T15:30:01.693Z,23.10
2022-09-12T15:31:01.760Z,23.04
2022-09-12T15:32:01.712Z,22.90
2022-09-12T15:33:01.680Z,22.90
2022-09-12T15:34:01.663Z,22.85
2022-09-12T15:35:01.661Z,22.79
2022-09-12T15:36:01.653Z,22.80
2022-09-12T15:37:01.670Z,22.72
2022-09-12T15:38:01.634Z,22.52
2022-09-12T15:39:01.630Z,22.39
2022-09-12T15:40:01.709Z,22.36
2022-09-12T15:41:01.612Z,22.37
2022-09-12T15:42:01.689Z,22.35
2022-09-12T15:43:01.629Z,22.36
2022-09-12T15:44:01.599Z,22.36
2022-09-12T15:45:02.722Z,22.28
2022-09-12T15:46:01.654Z,22.43
2022-09-12T15:47:01.687Z,22.40
2022-09-12T15:48:01.599Z,22.46
2022-09-12T15:49:01.554Z,22.43
2022-09-12T15:50:01.549Z,22.45
2022-09-12T15:51:01.536Z,22.40
2022-09-12T15:52:01.533Z,22.49
2022-09-12T15:53:01.541Z,22.45
2022-09-12T15:54:01.514Z,22.43
2022-09-12T15:55:01.506Z,22.47
2022-09-12T15:56:01.521Z,22.33
2022-09-12T15:57:01.491Z,22.35
2022-09-12T15:58:06.361Z,22.25
2022-09-12T15:59:01.471Z,22.18
2022-09-12T16:00:01.466Z,22.18
2022-09-12T16:01:01.597Z,22.07
2022-09-12T16:02:01.535Z,22.09
2022-09-12T16:03:01.533Z,22.17
2022-09-12T16:04:01.435Z,22.09
2022-09-12T16:05:01.428Z,22.15
2022-09-12T16:06:01.415Z,22.15
2022-09-12T16:07:01.411Z,22.09
2022-09-12T16:08:01.406Z,22.06
2022-09-12T16:09:01.394Z,21.94
2022-09-12T16:10:01.385Z,21.98
2022-09-12T16:11:01.381Z,21.99
2022-09-12T16:12:01.378Z,22.05
2022-09-12T16:13:01.359Z,22.00
2022-09-12T16:14:01.357Z,22.02
2022-09-12T16:15:01.344Z,21.91
2022-09-12T16:16:01.446Z,21.94
2022-09-12T16:17:01.328Z,21.86
2022-09-12T16:18:01.479Z,21.88
2022-09-12T16:19:01.313Z,21.75
2022-09-12T16:20:01.309Z,21.75
2022-09-12T16:21:01.294Z,21.64
2022-09-12T16:22:01.287Z,21.65
2022-09-12T16:23:01.276Z,21.64
2022-09-12T16:24:01.276Z,21.58
2022-09-12T16:25:01.264Z,21.52
2022-09-12T16:26:01.262Z,21.53
2022-09-12T16:27:01.564Z,21.49
2022-09-12T16:28:01.297Z,21.31
2022-09-12T16:29:01.231Z,21.25
2022-09-12T16:30:01.224Z,21.28
2022-09-12T16:31:01.253Z,21.16
2022-09-12T16:32:01.204Z,21.16
2022-09-12T16:33:01.198Z,21.16
2022-09-12T16:34:01.185Z,21.19
2022-09-12T16:35:01.179Z,21.10
2022-09-12T16:36:01.185Z,20.98
2022-09-12T16:37:01.162Z,20.92
2022-09-12T16:38:01.194Z,20.88
2022-09-12T16:39:01.152Z,20.82
2022-09-12T16:40:01.169Z,20.76
2022-09-12T16:41:01.126Z,20.72
2022-09-12T16:42:01.119Z,20.82
2022-09-12T16:43:01.183Z,20.73
2022-09-12T16:44:01.113Z,20.82
2022-09-12T16:45:01.095Z,20.77
2022-09-12T16:46:01.109Z,20.76
2022-09-12T16:47:01.074Z,20.74
2022-09-12T16:48:01.099Z,20.74
2022-09-12T16:49:01.083Z,20.67
2022-09-12T16:50:01.047Z,20.61
2022-09-12T16:51:01.038Z,20.73
2022-09-12T16:52:01.032Z,20.69
2022-09-12T16:53:01.021Z,20.69
2022-09-12T16:54:01.015Z,20.64
2022-09-12T16:55:01.004Z,20.72
2022-09-12T16:56:00.995Z,20.61
2022-09-12T16:57:01.016Z,20.70
2022-09-12T16:58:01.006Z,20.67
2022-09-12T16:59:01.002Z,20.59
2022-09-12T17:00:00.960Z,20.67
2022-09-12T17:01:00.961Z,20.55
2022-09-12T17:02:01.000Z,20.52
2022-09-12T17:03:00.999Z,20.48
2022-09-12T17:04:00.923Z,20.35
2022-09-12T17:05:00.947Z,20.33
2022-09-12T17:06:00.933Z,20.38
2022-09-12T17:07:00.899Z,20.39
2022-09-12T17:08:00.888Z,20.39
2022-09-12T17:09:00.880Z,20.41
2022-09-12T17:10:00.871Z,20.48
2022-09-12T17:11:00.889Z,20.47
2022-09-12T17:12:00.856Z,20.39
2022-09-12T17:13:00.848Z,20.36
2022-09-12T17:14:04.892Z,20.38
2022-09-12T17:15:00.898Z,20.35
2022-09-12T17:16:00.877Z,20.32
2022-09-12T17:17:00.813Z,20.26
2022-09-12T17:18:00.796Z,20.29
2022-09-12T17:19:00.803Z,20.24
2022-09-12T17:20:00.780Z,20.23
2022-09-12T17:21:00.776Z,20.26
2022-09-12T17:22:00.765Z,20.14
2022-09-12T17:23:00.757Z,20.17
2022-09-12T17:24:00.746Z,20.14
2022-09-12T17:25:00.736Z,20.13
2022-09-12T17:26:00.726Z,20.03
2022-09-12T17:27:00.744Z,19.99
2022-09-12T17:28:00.708Z,19.94
2022-09-12T17:29:00.700Z,19.98
2022-09-12T17:30:00.697Z,19.92
2022-09-12T17:31:00.734Z,19.87
2022-09-12T17:32:00.671Z,19.83
2022-09-12T17:33:00.693Z,19.84
2022-09-12T17:34:00.660Z,19.84
2022-09-12T17:35:00.661Z,19.78
2022-09-12T17:36:00.638Z,19.68
2022-09-12T17:37:00.658Z,19.71
2022-09-12T17:38:00.618Z,19.71
2022-09-12T17:39:00.655Z,19.59
2022-09-12T17:40:00.623Z,19.56
2022-09-12T17:41:00.637Z,19.61
2022-09-12T17:42:00.579Z,19.48
2022-09-12T17:43:00.575Z,19.37
2022-09-12T17:44:00.574Z,19.41
2022-09-12T17:45:00.558Z,19.36
2022-09-12T17:46:00.589Z,19.29
2022-09-12T17:47:00.540Z,19.29
2022-09-12T17:48:00.528Z,19.29
2022-09-12T17:49:00.535Z,19.25
2022-09-12T17:50:27.455Z,19.21
2022-09-12T17:51:00.497Z,19.19
2022-09-12T17:52:00.488Z,19.08
2022-09-12T17:53:00.482Z,19.16
2022-09-12T17:54:00.496Z,19.04
2022-09-12T17:55:00.463Z,19.07
2022-09-12T17:56:00.457Z,18.99
2022-09-12T17:57:00.440Z,19.00
2022-09-12T17:58:00.467Z,19.06
2022-09-12T17:59:00.429Z,18.99
2022-09-12T18:00:00.441Z,18.95
2022-09-12T18:01:00.410Z,18.92
2022-09-12T18:02:00.479Z,18.94
2022-09-12T18:03:00.468Z,18.90
2022-09-12T18:04:00.374Z,18.95
2022-09-12T18:05:00.396Z,18.94
2022-09-12T18:06:00.352Z,18.91
2022-09-12T18:07:00.420Z,18.94
2022-09-12T18:08:00.338Z,18.92
2022-09-12T18:09:00.492Z,18.87
2022-09-12T18:10:00.318Z,18.84
2022-09-12T18:11:00.327Z,18.84
2022-09-12T18:12:00.298Z,18.87
2022-09-12T18:13:00.289Z,18.75
2022-09-12T18:14:00.277Z,18.73
2022-09-12T18:15:00.282Z,18.76
2022-09-12T18:16:01.186Z,18.73
2022-09-12T18:17:00.287Z,18.69
2022-09-12T18:18:00.240Z,18.67
2022-09-12T18:19:00.314Z,18.65
2022-09-12T18:20:00.228Z,18.63
2022-09-12T18:21:00.213Z,18.57
2022-09-12T18:22:00.200Z,18.58
2022-09-12T18:23:00.218Z,18.44
2022-09-12T18:24:00.180Z,18.47
2022-09-12T18:25:00.204Z,18.50
2022-09-12T18:26:00.161Z,18.39
2022-09-12T18:27:00.154Z,18.45
2022-09-12T18:28:00.141Z,18.37
2022-09-12T18:29:00.134Z,18.39
2022-09-12T18:30:20.184Z,18.52
2022-09-12T18:31:00.161Z,18.48
2022-09-12T18:32:00.109Z,18.42
2022-09-12T18:33:00.099Z,18.37
2022-09-12T18:34:00.111Z,18.33
2022-09-12T18:35:00.220Z,18.41
2022-09-12T18:36:00.062Z,18.41
2022-09-12T18:37:00.063Z,18.35
2022-09-12T18:38:00.042Z,18.33
2022-09-12T18:39:00.033Z,18.35
2022-09-12T18:40:00.150Z,18.32
2022-09-12T18:41:00.076Z,18.27
2022-09-12T18:42:00.000Z,18.25
2022-09-12T18:42:59.994Z,18.21
2022-09-12T18:44:00.000Z,18.21
2022-09-12T18:45:00.003Z,18.23
2022-09-12T18:46:00.172Z,18.17
2022-09-12T18:46:59.964Z,18.20
2022-09-12T18:47:59.951Z,18.18
2022-09-12T18:48:59.932Z,18.18
2022-09-12T18:49:59.924Z,18.18
2022-09-12T18:50:59.917Z,18.17
2022-09-12T18:52:00.063Z,18.10
2022-09-12T18:53:00.125Z,18.10
2022-09-12T18:53:59.879Z,18.10
2022-09-12T18:54:59.887Z,18.10